Time;durP1;ratioP1;P1;durP2;ratioP2;P2;SDS_P1;SDS_P2;PMS_P1;PMS_P2;Temp;Humidity;BMP_temperature;BMP_pressure;BME280_temperature;BME280_humidity;BME280_pressure;Samples;Min_cycle;Max_cycle;Signal;HPM_P1;HPM_P2
2022/07/23 00:01:43;;;;;;;4.90;4.40;;;16.00;99.90;;;;;;5057382;28;20379;-79
2022/07/23 00:04:27;;;;;;;5.87;4.90;;;16.00;99.90;;;;;;5048348;28;20436;-78
2022/07/23 00:07:11;;;;;;;7.37;4.87;;;15.90;99.90;;;;;;5052588;28;20429;-78
2022/07/23 00:09:55;;;;;;;6.50;5.13;;;15.90;99.90;;;;;;5062280;28;20443;-79
2022/07/23 00:12:40;;;;;;;8.80;5.70;;;15.80;99.90;;;;;;5054362;28;20413;-78
2022/07/23 00:15:24;;;;;;;7.30;5.35;;;15.80;99.90;;;;;;5050128;28;20393;-78
2022/07/23 00:18:08;;;;;;;8.88;5.40;;;15.80;99.90;;;;;;5061585;28;20447;-79
2022/07/23 00:20:52;;;;;;;6.10;5.40;;;15.80;99.90;;;;;;5050010;28;20400;-79
2022/07/23 00:23:36;;;;;;;6.23;5.67;;;15.80;99.90;;;;;;5051280;28;20391;-77
2022/07/23 00:26:21;;;;;;;6.32;5.70;;;15.80;99.90;;;;;;5056379;28;20393;-79
2022/07/23 00:29:05;;;;;;;10.00;5.65;;;15.80;99.90;;;;;;5046647;28;20405;-78
2022/07/23 00:31:49;;;;;;;9.32;5.95;;;15.80;99.90;;;;;;5052268;28;20536;-79
2022/07/23 00:34:33;;;;;;;10.05;6.30;;;15.70;99.90;;;;;;5053344;28;20385;-79
2022/07/23 00:37:17;;;;;;;10.50;6.30;;;15.70;99.90;;;;;;5051786;28;20398;-78
2022/07/23 00:40:01;;;;;;;8.43;6.37;;;15.60;99.90;;;;;;5053747;28;20436;-76
2022/07/23 00:42:45;;;;;;;7.97;6.30;;;15.60;99.90;;;;;;5050182;28;20474;-79
2022/07/23 00:45:30;;;;;;;8.80;6.20;;;15.60;99.90;;;;;;5050990;28;20429;-79
2022/07/23 00:48:14;;;;;;;7.65;6.20;;;15.50;99.90;;;;;;5066934;28;20499;-78
2022/07/23 00:50:58;;;;;;;7.60;6.13;;;15.60;99.90;;;;;;5044061;28;20511;-79
2022/07/23 00:53:44;;;;;;;7.30;6.20;;;15.60;99.90;;;;;;5056827;28;20421;-79
2022/07/23 00:56:30;;;;;;;8.13;6.30;;;15.60;99.90;;;;;;5058900;28;20434;-79
2022/07/23 00:59:14;;;;;;;8.10;6.63;;;15.60;99.90;;;;;;5046100;28;20431;-78
2022/07/23 01:01:58;;;;;;;9.00;6.78;;;15.60;99.90;;;;;;5058416;28;20946;-79
2022/07/23 01:04:42;;;;;;;7.67;6.83;;;15.60;99.90;;;;;;5058411;28;20428;-79
2022/07/23 01:07:27;;;;;;;8.93;6.65;;;15.60;99.90;;;;;;5054558;28;20908;-79
2022/07/23 01:13:15;;;;;;;10.00;6.30;;;15.60;99.90;;;;;;5057699;28;20415;-79
2022/07/23 01:15:59;;;;;;;9.60;6.55;;;15.60;99.90;;;;;;5058001;28;20389;-79
2022/07/23 01:18:43;;;;;;;11.05;6.38;;;15.60;99.90;;;;;;5057561;28;20436;-79
2022/07/23 01:21:27;;;;;;;9.38;6.45;;;15.60;99.90;;;;;;5049508;28;20411;-78
2022/07/23 01:24:12;;;;;;;9.02;6.90;;;15.60;99.90;;;;;;5056247;28;20465;-78
2022/07/23 01:26:57;;;;;;;10.43;6.93;;;15.60;99.90;;;;;;5037487;28;20447;-78
2022/07/23 01:29:41;;;;;;;9.67;6.43;;;15.60;99.90;;;;;;5061665;28;20445;-78
2022/07/23 01:32:25;;;;;;;7.25;6.53;;;15.60;99.90;;;;;;5050340;28;20413;-79
2022/07/23 01:35:10;;;;;;;10.77;6.70;;;15.60;99.90;;;;;;5060103;28;20455;-78
2022/07/23 01:37:54;;;;;;;8.55;6.10;;;15.70;99.90;;;;;;5037854;28;20415;-78
2022/07/23 01:40:38;;;;;;;10.07;6.05;;;15.60;99.90;;;;;;5044166;28;20394;-78
2022/07/23 01:43:22;;;;;;;8.60;6.10;;;15.70;99.90;;;;;;5045628;28;20417;-78
2022/07/23 01:46:06;;;;;;;7.18;6.10;;;15.70;99.90;;;;;;5053032;28;20564;-78
2022/07/23 01:48:50;;;;;;;7.15;6.13;;;15.70;99.90;;;;;;5050123;28;20830;-78
2022/07/23 01:51:34;;;;;;;9.00;6.47;;;15.70;99.90;;;;;;5045875;28;20420;-78
2022/07/23 01:54:18;;;;;;;9.00;6.23;;;15.70;99.90;;;;;;5055400;28;20461;-78
2022/07/23 01:57:03;;;;;;;9.63;6.17;;;15.70;99.90;;;;;;5048107;28;20485;-78
2022/07/23 01:59:47;;;;;;;7.80;6.45;;;15.70;99.90;;;;;;5048809;28;20401;-78
2022/07/23 02:02:31;;;;;;;10.38;6.50;;;15.70;99.90;;;;;;5051610;28;20916;-78
2022/07/23 02:05:15;;;;;;;8.35;6.05;;;15.70;99.90;;;;;;5047207;28;20379;-78
2022/07/23 02:08:00;;;;;;;8.45;6.68;;;15.80;99.90;;;;;;5052668;28;20404;-78
2022/07/23 02:10:45;;;;;;;7.68;6.35;;;15.80;99.90;;;;;;5049014;28;20418;-78
2022/07/23 02:13:29;;;;;;;8.48;6.22;;;15.80;99.90;;;;;;5053345;28;20410;-78
2022/07/23 02:16:13;;;;;;;6.75;6.07;;;15.70;99.90;;;;;;5054360;28;20528;-78
2022/07/23 02:18:57;;;;;;;8.82;6.55;;;15.70;99.90;;;;;;5047209;28;20380;-78
2022/07/23 02:21:41;;;;;;;7.75;6.53;;;15.70;99.90;;;;;;5049036;28;20427;-78
2022/07/23 02:24:25;;;;;;;7.65;6.90;;;15.70;99.90;;;;;;5054395;28;20494;-78
2022/07/23 02:27:09;;;;;;;7.00;6.40;;;15.70;99.90;;;;;;5064083;28;20402;-78
2022/07/23 02:29:54;;;;;;;8.10;6.53;;;15.60;99.90;;;;;;5044706;28;20467;-77
2022/07/23 02:32:39;;;;;;;7.38;6.60;;;15.60;99.90;;;;;;5047326;28;20475;-78
2022/07/23 02:35:23;;;;;;;7.32;6.60;;;15.60;99.90;;;;;;5050263;28;20390;-78
2022/07/23 02:38:08;;;;;;;8.50;6.50;;;15.60;99.90;;;;;;5053441;28;20518;-77
2022/07/23 02:40:52;;;;;;;8.68;6.93;;;15.60;99.90;;;;;;5064056;28;21039;-78
2022/07/23 02:43:36;;;;;;;7.85;6.50;;;15.60;99.90;;;;;;5051664;28;20452;-78
2022/07/23 02:46:20;;;;;;;8.20;6.30;;;15.60;99.90;;;;;;5040018;28;20406;-76
2022/07/23 02:49:04;;;;;;;9.30;6.40;;;15.60;99.90;;;;;;5045864;28;20413;-78
2022/07/23 02:51:48;;;;;;;6.93;6.22;;;15.60;99.90;;;;;;5051294;28;20424;-78
2022/07/23 02:54:33;;;;;;;8.87;6.30;;;15.60;99.90;;;;;;5065350;28;20455;-78
2022/07/23 02:57:17;;;;;;;8.33;6.73;;;15.60;99.90;;;;;;5049063;28;20417;-78
2022/07/23 03:00:01;;;;;;;7.27;6.00;;;15.60;99.90;;;;;;5053352;28;20494;-78
2022/07/23 03:02:45;;;;;;;9.03;6.53;;;15.50;99.90;;;;;;5054322;28;20982;-78
2022/07/23 03:05:29;;;;;;;8.07;6.37;;;15.50;99.90;;;;;;5049091;28;20892;-78
2022/07/23 03:08:13;;;;;;;7.30;6.53;;;15.50;99.90;;;;;;5058853;28;20422;-77
2022/07/23 03:10:57;;;;;;;8.30;6.60;;;15.50;99.90;;;;;;5054103;28;20454;-78
2022/07/23 03:13:41;;;;;;;7.65;6.38;;;15.50;99.90;;;;;;5059230;28;20529;-78
2022/07/23 03:16:25;;;;;;;7.28;5.93;;;15.40;99.90;;;;;;5057678;28;20505;-79
2022/07/23 03:19:09;;;;;;;7.55;6.50;;;15.40;99.90;;;;;;5057795;28;20398;-76
2022/07/23 03:21:53;;;;;;;7.10;6.22;;;15.40;99.90;;;;;;5047855;28;20966;-78
2022/07/23 03:24:55;;;;;;;8.05;6.47;;;15.40;99.90;;;;;;5060681;28;20392;-78
2022/07/23 03:27:40;;;;;;;8.98;6.50;;;15.40;99.90;;;;;;5055665;28;20396;-79
2022/07/23 03:30:24;;;;;;;7.63;6.53;;;15.30;99.90;;;;;;5051632;28;20396;-78
2022/07/23 03:33:08;;;;;;;10.07;6.55;;;15.30;99.90;;;;;;5052334;28;20409;-78
2022/07/23 03:35:52;;;;;;;9.93;6.53;;;15.20;99.90;;;;;;5046063;28;21029;-78
2022/07/23 03:38:36;;;;;;;9.10;6.30;;;15.20;99.90;;;;;;5042206;28;20499;-78
2022/07/23 03:41:21;;;;;;;9.25;6.30;;;15.10;99.90;;;;;;5060000;28;20403;-78
2022/07/23 03:44:04;;;;;;;7.30;6.57;;;15.10;99.90;;;;;;5056621;28;20392;-78
2022/07/23 03:46:49;;;;;;;8.65;6.15;;;15.00;99.90;;;;;;5051849;28;20419;-77
2022/07/23 03:49:34;;;;;;;8.35;6.10;;;15.00;99.90;;;;;;5049745;28;20492;-78
2022/07/23 03:52:18;;;;;;;7.72;6.50;;;15.00;99.90;;;;;;5049713;28;20416;-78
2022/07/23 03:55:03;;;;;;;8.65;6.50;;;15.00;99.90;;;;;;5055526;28;20415;-78
2022/07/23 03:57:48;;;;;;;9.73;6.40;;;14.90;99.90;;;;;;5062148;28;20410;-78
2022/07/23 04:00:32;;;;;;;8.00;6.68;;;14.90;99.90;;;;;;5050528;28;20432;-78
2022/07/23 04:03:16;;;;;;;8.85;6.97;;;14.80;99.90;;;;;;5060936;28;20471;-78
2022/07/23 04:06:00;;;;;;;8.15;7.10;;;14.80;99.90;;;;;;5058973;28;20392;-78
2022/07/23 04:08:44;;;;;;;9.88;7.18;;;14.80;99.90;;;;;;5060112;28;20537;-78
2022/07/23 04:11:28;;;;;;;8.55;7.53;;;14.80;99.90;;;;;;5059978;28;20430;-78
2022/07/23 04:14:13;;;;;;;7.63;6.93;;;14.80;99.90;;;;;;5053780;28;20487;-78
2022/07/23 04:16:57;;;;;;;10.30;7.43;;;14.80;99.90;;;;;;5062226;28;20400;-78
2022/07/23 04:19:43;;;;;;;8.70;7.80;;;14.80;99.90;;;;;;5056755;28;20428;-78
2022/07/23 04:22:27;;;;;;;10.05;8.18;;;14.80;99.90;;;;;;5044993;28;20419;-77
2022/07/23 04:25:13;;;;;;;9.82;7.85;;;14.80;99.90;;;;;;5052102;28;20387;-78
2022/07/23 04:27:57;;;;;;;9.70;8.15;;;14.80;99.90;;;;;;5056708;28;20495;-78
2022/07/23 04:30:42;;;;;;;8.63;7.63;;;14.80;99.90;;;;;;5063201;28;20383;-78
2022/07/23 04:33:26;;;;;;;10.15;8.48;;;14.80;99.90;;;;;;5057563;28;20429;-81
2022/07/23 04:36:10;;;;;;;9.48;7.97;;;14.80;99.90;;;;;;5060057;28;20382;-78
2022/07/23 04:38:54;;;;;;;11.55;8.10;;;14.80;99.90;;;;;;5050078;28;20398;-78
2022/07/23 04:41:39;;;;;;;10.45;8.43;;;14.80;99.90;;;;;;5053873;28;20381;-77
2022/07/23 04:44:23;;;;;;;12.77;8.88;;;14.80;99.90;;;;;;5052482;28;21026;-77
2022/07/23 04:47:07;;;;;;;11.13;8.73;;;14.70;99.90;;;;;;5058909;28;20526;-78
2022/07/23 04:49:51;;;;;;;10.05;8.88;;;14.70;99.90;;;;;;5050658;28;20527;-78
2022/07/23 04:52:35;;;;;;;11.98;9.10;;;14.70;99.90;;;;;;5053674;28;20415;-78
2022/07/23 04:55:19;;;;;;;10.05;9.05;;;14.70;99.90;;;;;;5053013;28;20387;-78
2022/07/23 04:58:03;;;;;;;11.40;9.77;;;14.70;99.90;;;;;;5048390;28;20446;-78
2022/07/23 05:00:47;;;;;;;11.90;10.02;;;14.70;99.90;;;;;;5047192;28;20405;-78
2022/07/23 05:03:31;;;;;;;11.82;9.73;;;14.70;99.90;;;;;;5064011;28;20407;-78
2022/07/23 05:06:16;;;;;;;12.50;10.33;;;14.80;99.90;;;;;;5059936;28;20478;-78
2022/07/23 05:09:00;;;;;;;12.98;10.13;;;14.80;99.90;;;;;;5052943;28;20405;-78
2022/07/23 05:11:44;;;;;;;12.27;10.45;;;14.80;99.90;;;;;;5054066;28;20867;-79
2022/07/23 05:14:28;;;;;;;12.60;9.55;;;14.80;99.90;;;;;;5054349;28;20383;-78
2022/07/23 05:17:12;;;;;;;12.15;9.27;;;14.90;99.90;;;;;;5055984;28;20423;-78
2022/07/23 05:19:57;;;;;;;14.27;9.67;;;14.90;99.90;;;;;;5053178;28;20396;-78
2022/07/23 05:22:41;;;;;;;12.25;9.63;;;14.90;99.90;;;;;;5046049;28;20429;-78
2022/07/23 05:25:25;;;;;;;10.23;9.20;;;14.90;99.90;;;;;;5057810;28;20440;-78
2022/07/23 05:28:10;;;;;;;11.07;8.55;;;15.00;99.90;;;;;;5056763;28;20395;-78
2022/07/23 05:30:54;;;;;;;12.32;8.30;;;15.00;99.90;;;;;;5063291;28;20913;-78
2022/07/23 05:33:37;;;;;;;9.27;8.32;;;15.10;99.90;;;;;;5060612;28;20450;-78
2022/07/23 05:36:22;;;;;;;10.48;8.30;;;15.10;99.90;;;;;;5054428;28;20384;-80
2022/07/23 05:39:06;;;;;;;11.30;7.82;;;15.20;99.90;;;;;;5059543;28;20534;-78
2022/07/23 05:41:49;;;;;;;9.23;8.25;;;15.20;99.90;;;;;;5058619;28;20385;-78
2022/07/23 05:44:34;;;;;;;11.35;9.02;;;15.30;99.90;;;;;;5064997;28;20752;-78
2022/07/23 05:47:18;;;;;;;13.73;9.10;;;15.30;99.90;;;;;;5053573;28;20390;-78
2022/07/23 05:50:03;;;;;;;11.23;8.98;;;15.30;99.90;;;;;;5046036;28;20418;-78
2022/07/23 05:52:48;;;;;;;10.45;8.70;;;15.40;99.90;;;;;;5058279;28;20434;-77
2022/07/23 05:55:34;;;;;;;9.27;7.43;;;15.40;99.90;;;;;;5056873;28;20518;-78
2022/07/23 05:58:18;;;;;;;11.63;6.97;;;15.50;99.90;;;;;;5048885;28;20609;-78
2022/07/23 06:01:02;;;;;;;10.68;7.22;;;15.50;99.90;;;;;;5050738;28;20607;-78
2022/07/23 06:03:46;;;;;;;7.97;6.95;;;15.50;99.90;;;;;;5051647;28;20400;-78
2022/07/23 06:06:30;;;;;;;9.57;7.40;;;15.60;99.90;;;;;;5051040;28;20383;-78
2022/07/23 06:09:14;;;;;;;8.18;6.57;;;15.70;99.90;;;;;;5058273;28;20402;-79
2022/07/23 06:11:58;;;;;;;7.60;5.60;;;15.80;99.90;;;;;;5052904;28;20451;-78
2022/07/23 06:14:42;;;;;;;6.20;5.60;;;15.80;99.90;;;;;;5051174;28;20436;-78
2022/07/23 06:17:27;;;;;;;9.52;6.13;;;15.90;99.90;;;;;;5056622;28;20380;-79
2022/07/23 06:20:11;;;;;;;8.90;6.03;;;15.90;99.90;;;;;;5052558;28;20430;-79
2022/07/23 06:22:55;;;;;;;7.10;5.38;;;16.00;99.90;;;;;;5059888;28;20404;-78
2022/07/23 06:25:39;;;;;;;6.03;4.93;;;16.00;99.90;;;;;;5056572;28;20403;-78
2022/07/23 06:28:23;;;;;;;7.60;4.60;;;16.10;99.90;;;;;;5053648;28;20415;-79
2022/07/23 06:31:07;;;;;;;7.82;4.45;;;16.20;99.90;;;;;;5048578;28;20398;-78
2022/07/23 06:33:52;;;;;;;7.38;4.43;;;16.20;99.90;;;;;;5058014;28;20434;-78
2022/07/23 06:36:35;;;;;;;6.22;3.65;;;16.30;99.90;;;;;;5053521;28;20402;-78
2022/07/23 06:39:20;;;;;;;8.38;4.00;;;16.30;99.90;;;;;;5055031;28;20403;-79
2022/07/23 06:42:05;;;;;;;6.18;3.85;;;16.30;99.90;;;;;;5062647;28;20481;-79
2022/07/23 06:44:49;;;;;;;6.90;3.97;;;16.40;99.90;;;;;;5056694;28;20443;-78
2022/07/23 06:47:34;;;;;;;8.48;4.15;;;16.40;99.90;;;;;;5051112;28;20404;-76
2022/07/23 06:50:18;;;;;;;6.97;3.58;;;16.40;99.90;;;;;;5060169;28;20527;-78
2022/07/23 06:53:02;;;;;;;7.53;4.03;;;16.50;99.90;;;;;;5068441;28;20442;-80
2022/07/23 06:55:46;;;;;;;5.33;3.90;;;16.60;99.90;;;;;;5056639;28;20446;-78
2022/07/23 06:58:31;;;;;;;7.25;4.20;;;16.70;99.90;;;;;;5064944;28;20909;-79
2022/07/23 07:01:14;;;;;;;5.87;3.50;;;16.70;99.90;;;;;;5052465;28;20379;-79
2022/07/23 07:03:59;;;;;;;4.43;3.43;;;16.70;99.90;;;;;;5057170;28;20534;-78
2022/07/23 07:06:43;;;;;;;4.67;3.67;;;16.80;99.90;;;;;;5060824;28;20430;-79
2022/07/23 07:09:27;;;;;;;4.80;2.77;;;16.80;99.90;;;;;;5054637;28;20404;-79
2022/07/23 07:12:11;;;;;;;6.68;3.10;;;16.80;99.90;;;;;;5059783;28;20437;-79
2022/07/23 07:14:57;;;;;;;7.55;2.80;;;16.90;99.90;;;;;;5065783;28;20389;-79
2022/07/23 07:17:42;;;;;;;5.40;2.30;;;16.90;99.90;;;;;;5048574;28;20392;-79
2022/07/23 07:20:26;;;;;;;3.85;2.10;;;17.00;99.90;;;;;;5057842;28;20428;-79
2022/07/23 07:23:11;;;;;;;3.33;2.10;;;17.10;99.90;;;;;;5060947;28;20399;-79
2022/07/23 07:25:56;;;;;;;3.90;2.30;;;17.10;99.90;;;;;;5057500;28;20420;-80
2022/07/23 07:28:40;;;;;;;2.92;2.17;;;17.10;99.90;;;;;;5064143;28;20478;-79
2022/07/23 07:31:24;;;;;;;4.13;1.77;;;17.30;99.90;;;;;;5055137;28;20485;-79
2022/07/23 07:34:09;;;;;;;3.45;1.95;;;17.30;99.90;;;;;;5061255;28;20469;-79
2022/07/23 07:36:53;;;;;;;4.10;1.85;;;17.40;99.90;;;;;;5058812;28;20420;-79
2022/07/23 07:39:37;;;;;;;5.53;1.88;;;17.40;99.90;;;;;;5050210;28;20397;-79
2022/07/23 07:42:21;;;;;;;3.60;1.75;;;17.40;99.90;;;;;;5051188;28;20568;-79
2022/07/23 07:45:05;;;;;;;2.65;1.70;;;17.50;99.90;;;;;;5060695;28;20516;-79
2022/07/23 07:47:50;;;;;;;4.10;1.90;;;17.50;99.90;;;;;;5053760;28;20437;-79
2022/07/23 07:50:34;;;;;;;3.22;1.58;;;17.50;99.90;;;;;;5055468;28;20743;-78
2022/07/23 07:53:18;;;;;;;5.53;1.50;;;17.60;99.90;;;;;;5052591;28;20415;-78
2022/07/23 07:56:03;;;;;;;2.80;1.50;;;17.80;99.90;;;;;;5049864;28;20453;-78
2022/07/23 07:58:47;;;;;;;5.25;1.40;;;17.80;99.90;;;;;;5056746;28;20404;-79
2022/07/23 08:01:31;;;;;;;4.22;1.50;;;17.80;99.90;;;;;;5053986;28;20442;-79
2022/07/23 08:04:16;;;;;;;3.72;1.50;;;17.80;99.90;;;;;;5051580;28;20434;-79
2022/07/23 08:07:00;;;;;;;4.43;1.40;;;17.90;99.90;;;;;;5053394;28;20400;-80
2022/07/23 08:09:44;;;;;;;3.13;1.30;;;18.10;99.90;;;;;;5062795;28;20458;-79
2022/07/23 08:12:28;;;;;;;3.78;1.38;;;18.10;99.90;;;;;;5053370;28;20416;-78
2022/07/23 08:15:14;;;;;;;4.93;1.60;;;18.20;99.90;;;;;;5058868;28;20411;-79
2022/07/23 08:17:59;;;;;;;3.58;1.40;;;18.20;99.90;;;;;;5060899;28;20408;-79
2022/07/23 08:20:44;;;;;;;4.10;1.20;;;18.10;99.90;;;;;;5054279;28;20504;-79
2022/07/23 08:23:28;;;;;;;2.63;1.10;;;18.10;99.90;;;;;;5057699;28;20387;-79
2022/07/23 08:26:12;;;;;;;3.80;1.00;;;18.10;99.90;;;;;;5057662;28;20449;-79
2022/07/23 08:28:56;;;;;;;4.60;1.27;;;18.20;99.90;;;;;;5066633;28;20398;-79
2022/07/23 08:31:41;;;;;;;4.95;1.15;;;18.20;99.90;;;;;;5057013;28;20447;-79
2022/07/23 08:34:25;;;;;;;2.30;0.90;;;18.10;99.90;;;;;;5058968;28;20471;-80
2022/07/23 08:37:09;;;;;;;4.30;1.00;;;18.20;99.90;;;;;;5062826;28;20481;-79
2022/07/23 08:39:53;;;;;;;4.05;1.00;;;18.30;99.90;;;;;;5053645;28;20381;-80
2022/07/23 08:42:38;;;;;;;3.67;1.20;;;18.40;99.90;;;;;;5060173;28;20403;-79
2022/07/23 08:45:24;;;;;;;3.90;1.13;;;18.50;99.90;;;;;;5060444;28;20403;-80
2022/07/23 08:48:12;;;;;;;3.90;1.10;;;18.50;99.90;;;;;;5054730;28;20411;-79
2022/07/23 08:51:00;;;;;;;3.63;1.20;;;18.40;99.90;;;;;;5054497;28;20399;-79
2022/07/23 08:53:45;;;;;;;2.60;0.95;;;18.40;99.90;;;;;;5059857;28;20475;-79
2022/07/23 08:56:29;;;;;;;6.75;1.30;;;18.50;99.90;;;;;;5053661;28;20398;-78
2022/07/23 08:59:13;;;;;;;2.83;1.20;;;18.50;99.90;;;;;;5043520;28;20979;-79
2022/07/23 09:01:58;;;;;;;3.05;1.17;;;18.60;99.90;;;;;;5053549;28;20917;-79
2022/07/23 09:04:42;;;;;;;3.28;1.10;;;18.60;99.90;;;;;;5053232;28;20950;-79
2022/07/23 09:07:26;;;;;;;3.38;1.10;;;18.60;99.90;;;;;;5051995;28;20391;-80
2022/07/23 09:10:11;;;;;;;1.75;0.88;;;18.70;99.90;;;;;;5059450;28;20412;-80
2022/07/23 09:12:55;;;;;;;2.95;0.93;;;18.70;99.90;;;;;;5051851;28;20461;-80
2022/07/23 09:15:52;;;;;;;2.63;0.88;;;18.80;99.90;;;;;;5055852;28;20418;-79
2022/07/23 09:18:45;;;;;;;4.05;0.90;;;18.80;99.90;;;;;;5048355;28;20423;-79
2022/07/23 09:21:34;;;;;;;3.75;1.10;;;18.90;99.90;;;;;;5049170;28;20380;-79
2022/07/23 09:24:20;;;;;;;2.25;0.93;;;19.10;99.90;;;;;;5050394;28;20398;-79
2022/07/23 09:27:04;;;;;;;2.95;0.98;;;19.20;99.90;;;;;;5052865;28;21049;-79
2022/07/23 09:29:56;;;;;;;2.20;0.80;;;19.20;99.90;;;;;;5048111;28;20445;-79
2022/07/23 09:32:41;;;;;;;1.75;0.80;;;19.20;99.90;;;;;;5046255;28;20448;-80
2022/07/23 09:35:49;;;;;;;2.47;0.82;;;19.20;99.90;;;;;;5049615;28;20913;-79
2022/07/23 09:38:33;;;;;;;2.93;0.67;;;19.30;99.90;;;;;;5052006;28;20392;-79
2022/07/23 09:41:17;;;;;;;2.10;0.97;;;19.30;99.90;;;;;;5059008;28;20398;-79
2022/07/23 09:44:16;;;;;;;2.42;0.80;;;19.30;99.90;;;;;;5056749;28;20488;-79
2022/07/23 09:47:01;;;;;;;2.33;0.98;;;19.30;99.90;;;;;;5057040;28;20480;-79
2022/07/23 09:50:04;;;;;;;2.60;0.98;;;19.40;99.90;;;;;;5051409;28;20401;-80
2022/07/23 09:52:49;;;;;;;2.17;0.83;;;19.50;99.90;;;;;;5062107;28;20442;-79
2022/07/23 09:55:38;;;;;;;3.00;0.70;;;19.60;99.90;;;;;;5057500;28;20440;-80
2022/07/23 09:58:25;;;;;;;3.00;0.90;;;19.70;99.90;;;;;;5055015;28;20395;-79
2022/07/23 10:01:10;;;;;;;1.43;0.60;;;19.70;99.90;;;;;;5051742;28;20441;-78
2022/07/23 10:03:55;;;;;;;1.73;0.70;;;19.70;99.90;;;;;;5052778;28;20418;-79
2022/07/23 10:06:40;;;;;;;3.38;0.90;;;19.70;99.90;;;;;;5046792;28;20416;-79
2022/07/23 10:09:28;;;;;;;3.08;0.90;;;19.60;99.90;;;;;;5052172;28;20451;-79
2022/07/23 10:15:17;;;;;;;2.15;0.80;;;19.50;99.90;;;;;;5057323;28;20404;-79
2022/07/23 10:18:01;;;;;;;4.60;0.77;;;19.50;99.90;;;;;;5062054;28;20818;-79
2022/07/23 10:20:49;;;;;;;4.38;1.02;;;19.50;99.90;;;;;;5047233;28;20387;-79
2022/07/23 10:24:09;;;;;;;1.85;0.80;;;19.50;99.90;;;;;;5057117;28;20761;-79
2022/07/23 10:27:15;;;;;;;4.57;1.00;;;19.70;99.90;;;;;;5049919;28;20407;-79
2022/07/23 10:30:06;;;;;;;2.63;1.00;;;19.70;99.90;;;;;;5060238;28;20483;-79
2022/07/23 10:33:20;;;;;;;2.55;0.70;;;19.70;99.90;;;;;;5060723;28;20459;-79
2022/07/23 10:36:21;;;;;;;2.30;0.70;;;19.70;99.90;;;;;;5058047;28;20753;-79
2022/07/23 10:39:22;;;;;;;2.40;0.80;;;19.80;99.90;;;;;;5058617;28;20472;-79
2022/07/23 10:42:13;;;;;;;1.23;0.70;;;19.90;99.90;;;;;;5048671;28;20430;-78
2022/07/23 10:44:57;;;;;;;2.92;0.70;;;19.90;99.90;;;;;;5057889;28;20434;-79
2022/07/23 10:47:41;;;;;;;2.20;0.75;;;19.90;99.90;;;;;;5057309;28;20418;-79
2022/07/23 10:50:31;;;;;;;1.40;0.60;;;19.90;99.90;;;;;;5043682;28;20420;-79
2022/07/23 10:53:17;;;;;;;0.80;0.60;;;20.00;99.90;;;;;;5047830;28;20422;-79
2022/07/23 10:56:01;;;;;;;2.20;0.50;;;20.10;99.90;;;;;;5051319;28;20390;-79
2022/07/23 10:58:47;;;;;;;1.53;0.60;;;20.20;99.90;;;;;;5058393;28;20404;-79
2022/07/23 11:01:36;;;;;;;3.00;0.70;;;20.20;99.90;;;;;;5044687;28;20382;-79
2022/07/23 11:04:48;;;;;;;1.40;0.60;;;20.30;99.90;;;;;;5057950;28;20506;-79
2022/07/23 11:07:33;;;;;;;1.50;0.60;;;20.30;99.90;;;;;;5054478;28;20399;-79
2022/07/23 11:10:41;;;;;;;1.10;0.60;;;20.20;99.90;;;;;;5055945;28;20418;-79
2022/07/23 11:13:26;;;;;;;1.05;0.60;;;20.30;99.90;;;;;;5058037;28;20419;-79
2022/07/23 11:16:15;;;;;;;1.93;0.50;;;20.20;99.90;;;;;;5058658;28;20434;-79
2022/07/23 11:19:03;;;;;;;2.10;0.60;;;20.20;99.90;;;;;;5058445;28;20411;-79
2022/07/23 11:21:48;;;;;;;1.10;0.68;;;20.20;99.90;;;;;;5052562;28;20465;-79
2022/07/23 11:24:50;;;;;;;1.60;0.60;;;20.20;99.90;;;;;;5060707;28;20394;-79
2022/07/23 11:27:42;;;;;;;2.00;0.60;;;20.30;99.90;;;;;;5051554;28;20402;-79
2022/07/23 11:30:27;;;;;;;2.17;0.55;;;20.30;99.90;;;;;;5044633;28;20518;-79
2022/07/23 11:33:10;;;;;;;0.82;0.50;;;20.40;99.90;;;;;;5052490;28;20415;-78
2022/07/23 11:36:03;;;;;;;1.63;0.50;;;20.30;99.90;;;;;;5052193;28;20897;-79
2022/07/23 11:38:52;;;;;;;2.90;0.70;;;20.40;99.90;;;;;;5055228;28;20418;-79
2022/07/23 11:41:45;;;;;;;2.07;0.80;;;20.40;99.90;;;;;;5044687;28;20481;-79
2022/07/23 11:44:32;;;;;;;1.73;0.68;;;20.40;99.90;;;;;;5056902;28;20383;-79
2022/07/23 11:47:23;;;;;;;2.22;0.70;;;20.50;99.90;;;;;;5055690;28;20400;-78
2022/07/23 11:50:07;;;;;;;2.67;0.57;;;20.50;99.90;;;;;;5055353;28;20420;-79
2022/07/23 11:52:53;;;;;;;2.08;0.70;;;20.50;99.90;;;;;;5055697;28;20919;-79
2022/07/23 11:55:38;;;;;;;2.87;0.57;;;20.60;99.90;;;;;;5056927;28;20412;-79
2022/07/23 11:58:22;;;;;;;1.65;0.70;;;20.70;99.90;;;;;;5054280;28;20402;-79
2022/07/23 12:01:06;;;;;;;1.45;0.50;;;20.70;99.90;;;;;;5050460;28;20407;-79
2022/07/23 12:03:51;;;;;;;1.90;0.60;;;20.70;99.90;;;;;;5058194;28;20394;-79
2022/07/23 12:06:38;;;;;;;1.98;0.73;;;20.80;99.90;;;;;;5057640;28;20395;-79
2022/07/23 12:09:22;;;;;;;1.87;0.67;;;20.90;99.90;;;;;;5055027;28;20414;-79
2022/07/23 12:12:06;;;;;;;3.07;0.63;;;21.00;99.90;;;;;;5051047;28;20877;-79
2022/07/23 12:14:58;;;;;;;1.98;0.60;;;21.10;99.90;;;;;;5057833;28;20451;-79
2022/07/23 12:17:45;;;;;;;0.82;0.60;;;21.10;99.90;;;;;;5048310;28;20405;-78
2022/07/23 12:20:35;;;;;;;1.00;0.57;;;21.10;99.90;;;;;;5057368;28;20383;-79
2022/07/23 12:23:21;;;;;;;1.33;0.60;;;21.20;99.90;;;;;;5058062;28;20465;-79
2022/07/23 12:26:07;;;;;;;1.40;0.50;;;21.30;99.90;;;;;;5052339;28;20396;-79
2022/07/23 12:28:54;;;;;;;1.45;0.68;;;21.40;99.90;;;;;;5041300;28;20498;-77
2022/07/23 12:31:38;;;;;;;2.00;0.50;;;21.60;99.90;;;;;;5052728;28;20481;-79
2022/07/23 12:34:22;;;;;;;1.70;0.50;;;21.60;99.90;;;;;;5055210;28;20503;-79
2022/07/23 12:37:07;;;;;;;2.30;0.60;;;21.60;99.90;;;;;;5054278;28;20394;-80
2022/07/23 12:39:51;;;;;;;1.67;0.70;;;21.70;99.90;;;;;;5051765;28;20388;-79
2022/07/23 12:42:42;;;;;;;3.08;0.80;;;21.80;99.90;;;;;;5044894;28;20494;-79
2022/07/23 12:45:28;;;;;;;2.00;0.60;;;21.80;99.90;;;;;;5056643;28;20395;-79
2022/07/23 12:48:54;;;;;;;2.38;0.68;;;21.80;99.90;;;;;;5041929;28;20434;-79
2022/07/23 12:51:39;;;;;;;2.30;0.70;;;21.90;99.90;;;;;;5051564;28;20682;-79
2022/07/23 12:54:28;;;;;;;1.08;0.57;;;21.80;99.90;;;;;;5052178;28;20431;-80
2022/07/23 12:57:12;;;;;;;0.68;0.50;;;21.80;99.90;;;;;;5049445;28;20394;-79
2022/07/23 13:00:10;;;;;;;1.42;0.50;;;21.80;99.90;;;;;;5047608;28;20426;-79
2022/07/23 13:02:54;;;;;;;1.20;0.47;;;21.80;99.90;;;;;;5048930;28;20402;-79
2022/07/23 13:05:38;;;;;;;3.42;0.63;;;21.80;99.90;;;;;;5058536;28;20393;-79
2022/07/23 13:08:23;;;;;;;3.53;0.70;;;21.80;99.90;;;;;;5049890;28;20756;-79
2022/07/23 13:11:07;;;;;;;0.52;0.50;;;21.80;99.90;;;;;;5052734;28;20387;-78
2022/07/23 13:13:52;;;;;;;0.75;0.40;;;21.90;99.90;;;;;;5052510;28;20419;-79
2022/07/23 13:16:36;;;;;;;2.30;0.70;;;21.90;99.90;;;;;;5048748;28;20586;-79
2022/07/23 13:19:23;;;;;;;1.10;0.60;;;22.00;99.90;;;;;;5054775;28;20494;-79
2022/07/23 13:22:08;;;;;;;1.30;0.70;;;22.10;99.90;;;;;;5049371;28;20449;-79
2022/07/23 13:24:52;;;;;;;2.58;0.57;;;22.20;99.90;;;;;;5056288;28;20903;-79
2022/07/23 13:27:36;;;;;;;0.90;0.50;;;22.20;99.90;;;;;;5053769;28;20493;-79
2022/07/23 13:30:20;;;;;;;0.57;0.55;;;22.20;99.90;;;;;;5046052;28;20390;-79
2022/07/23 13:33:04;;;;;;;0.85;0.60;;;22.30;99.90;;;;;;5060474;28;20833;-79
2022/07/23 13:35:50;;;;;;;3.63;0.70;;;22.30;99.90;;;;;;5054776;28;20407;-78
2022/07/23 13:38:34;;;;;;;0.68;0.52;;;22.40;99.90;;;;;;5038824;28;20391;-79
2022/07/23 13:41:19;;;;;;;1.50;0.50;;;22.40;99.90;;;;;;5058274;28;20441;-78
2022/07/23 13:44:04;;;;;;;1.73;0.50;;;22.40;99.90;;;;;;5064920;28;20424;-79
2022/07/23 13:46:48;;;;;;;1.60;0.73;;;22.40;99.90;;;;;;5069995;28;20436;-79
2022/07/23 13:49:32;;;;;;;1.63;0.60;;;22.40;99.90;;;;;;5058290;28;20400;-79
2022/07/23 13:52:16;;;;;;;1.30;0.57;;;22.40;99.90;;;;;;5070594;28;20431;-78
2022/07/23 13:55:03;;;;;;;1.17;0.47;;;22.30;99.90;;;;;;5063964;28;20398;-79
2022/07/23 13:57:48;;;;;;;1.75;0.55;;;22.30;99.90;;;;;;5053832;28;20485;-79
2022/07/23 14:00:35;;;;;;;0.77;0.60;;;22.20;99.90;;;;;;5062099;28;20426;-79
2022/07/23 14:03:24;;;;;;;1.80;0.50;;;22.20;99.90;;;;;;5052289;28;20425;-79
2022/07/23 14:06:09;;;;;;;1.30;0.57;;;22.20;99.90;;;;;;5056222;28;20394;-79
2022/07/23 14:08:53;;;;;;;2.75;0.60;;;22.30;99.90;;;;;;5046389;28;20480;-78
2022/07/23 14:11:38;;;;;;;1.13;0.50;;;22.30;99.90;;;;;;5053514;28;20390;-79
2022/07/23 14:14:22;;;;;;;0.82;0.70;;;22.30;99.90;;;;;;5048275;28;20432;-80
2022/07/23 14:17:06;;;;;;;0.80;0.50;;;22.40;99.90;;;;;;5058798;28;20382;-79
2022/07/23 14:19:50;;;;;;;2.00;0.68;;;22.40;99.90;;;;;;5054757;28;20397;-79
2022/07/23 14:22:35;;;;;;;1.90;0.70;;;22.40;99.90;;;;;;5050820;28;20422;-80
2022/07/23 14:25:19;;;;;;;0.80;0.60;;;22.30;99.90;;;;;;5046441;28;20386;-79
2022/07/23 14:28:03;;;;;;;0.82;0.60;;;22.20;99.90;;;;;;5058224;28;20755;-80